createdAt,value
2022-09-13T00:03:45.794Z,6.23
2022-09-13T00:08:38.603Z,6.95
2022-09-13T00:13:29.013Z,6.90
2022-09-13T00:18:22.525Z,6.90
2022-09-13T00:23:16.055Z,6.88
2022-09-13T00:28:08.805Z,7.28
2022-09-13T00:32:59.342Z,7.00
2022-09-13T00:37:55.056Z,7.40
2022-09-13T00:42:48.556Z,7.40
2022-09-13T00:47:43.642Z,8.20
2022-09-13T00:52:37.439Z,8.32
2022-09-13T00:57:35.233Z,8.50
2022-09-13T01:02:26.160Z,8.73
2022-09-13T01:07:20.752Z,8.35
2022-09-13T01:12:22.223Z,8.60
2022-09-13T01:17:15.549Z,8.65
2022-09-13T01:22:40.171Z,7.85
2022-09-13T01:27:44.041Z,9.55
2022-09-13T01:32:58.332Z,8.45
2022-09-13T01:37:56.493Z,8.18
2022-09-13T01:43:10.336Z,7.70
2022-09-13T01:48:11.428Z,7.80
2022-09-13T01:53:07.517Z,8.65
2022-09-13T01:58:06.564Z,8.32
2022-09-13T02:03:08.843Z,8.90
2022-09-13T02:08:07.778Z,7.85
2022-09-13T02:13:00.243Z,7.85
2022-09-13T02:17:56.753Z,7.80
2022-09-13T02:22:51.687Z,8.20
2022-09-13T02:27:51.823Z,8.18
2022-09-13T02:32:47.032Z,7.57
2022-09-13T02:37:41.555Z,8.70
2022-09-13T02:42:39.429Z,8.67
2022-09-13T02:47:42.188Z,8.85
2022-09-13T02:52:42.601Z,9.38
2022-09-13T02:57:41.889Z,8.00
2022-09-13T03:02:37.086Z,8.93
2022-09-13T03:07:40.265Z,8.63
2022-09-13T03:12:51.046Z,9.50
2022-09-13T03:17:58.677Z,8.70
2022-09-13T03:23:17.270Z,8.27
2022-09-13T03:28:20.901Z,9.30
2022-09-13T03:33:24.033Z,9.43
2022-09-13T03:38:20.022Z,9.03
2022-09-13T03:43:17.261Z,8.47
2022-09-13T03:48:11.320Z,9.00
2022-09-13T03:53:11.434Z,9.93
2022-09-13T03:58:01.756Z,8.47
2022-09-13T04:02:55.943Z,7.68
2022-09-13T04:07:46.436Z,8.13
2022-09-13T04:12:41.652Z,8.57
2022-09-13T04:17:33.558Z,8.35
2022-09-13T04:22:23.933Z,8.93
2022-09-13T04:27:14.740Z,8.80
2022-09-13T04:32:09.508Z,8.60
2022-09-13T04:37:05.524Z,8.15
2022-09-13T04:41:57.548Z,8.63
2022-09-13T04:46:50.994Z,9.10
2022-09-13T04:51:44.040Z,9.63
2022-09-13T04:56:34.420Z,10.95
2022-09-13T05:01:28.024Z,11.23
2022-09-13T05:06:24.600Z,12.13
2022-09-13T05:11:17.448Z,9.00
2022-09-13T05:16:10.308Z,9.35
2022-09-13T05:21:02.949Z,9.13
2022-09-13T05:25:57.096Z,13.20
2022-09-13T05:30:58.725Z,10.40
2022-09-13T05:35:49.676Z,10.32
2022-09-13T05:40:40.144Z,10.77
2022-09-13T05:45:33.087Z,10.10
2022-09-13T05:50:56.017Z,9.57
2022-09-13T05:55:42.129Z,10.00
2022-09-13T06:00:34.190Z,12.13
2022-09-13T06:05:31.875Z,12.10
2022-09-13T06:10:24.601Z,10.63
2022-09-13T06:15:15.867Z,13.07
2022-09-13T06:20:07.328Z,11.73
2022-09-13T06:25:00.948Z,11.77
2022-09-13T06:29:52.737Z,11.68
2022-09-13T06:34:43.180Z,11.77
2022-09-13T06:39:34.603Z,13.23
2022-09-13T06:44:27.268Z,15.48
2022-09-13T06:49:17.930Z,16.70
2022-09-13T06:54:07.769Z,17.23
2022-09-13T06:59:00.154Z,18.80
2022-09-13T07:03:54.401Z,17.27
2022-09-13T07:08:45.368Z,17.80
2022-09-13T07:13:36.329Z,16.20
2022-09-13T07:18:26.205Z,14.70
2022-09-13T07:23:18.360Z,10.60
2022-09-13T07:28:08.031Z,8.02
2022-09-13T07:32:57.622Z,6.15
2022-09-13T07:37:49.486Z,4.63
2022-09-13T07:42:41.890Z,3.17
2022-09-13T07:47:31.533Z,2.22
2022-09-13T07:52:21.689Z,1.10
2022-09-13T07:57:13.219Z,0.82
2022-09-13T08:02:05.574Z,1.10
2022-09-13T08:06:55.951Z,0.70
2022-09-13T08:11:47.857Z,1.48
2022-09-13T08:16:39.562Z,1.27
2022-09-13T08:21:36.227Z,0.90
2022-09-13T08:26:26.156Z,0.60
2022-09-13T08:31:20.009Z,0.60
2022-09-13T08:36:09.739Z,0.50
2022-09-13T08:41:08.113Z,0.60
2022-09-13T08:46:04.547Z,0.50
2022-09-13T08:51:02.749Z,0.40
2022-09-13T08:56:06.361Z,0.57
2022-09-13T09:01:03.817Z,0.57
2022-09-13T09:05:54.594Z,0.50
2022-09-13T09:10:48.141Z,0.80
2022-09-13T09:15:45.208Z,1.60
2022-09-13T09:20:39.846Z,1.85
2022-09-13T09:25:30.059Z,1.83
2022-09-13T09:30:20.078Z,2.28
2022-09-13T09:35:21.226Z,2.42
2022-09-13T09:40:17.536Z,3.50
2022-09-13T09:45:18.875Z,2.50
2022-09-13T09:50:18.538Z,1.80
2022-09-13T09:55:22.803Z,1.40
2022-09-13T10:00:15.525Z,1.27
2022-09-13T10:05:07.256Z,1.48
2022-09-13T10:10:04.980Z,1.30
2022-09-13T10:14:59.115Z,0.70
2022-09-13T10:20:01.556Z,0.75
2022-09-13T10:24:51.400Z,0.70
2022-09-13T10:29:50.653Z,0.70
2022-09-13T10:34:40.528Z,0.70
2022-09-13T10:39:33.984Z,0.95
2022-09-13T10:44:31.896Z,0.50
2022-09-13T10:49:48.942Z,0.55
2022-09-13T10:54:38.522Z,0.35
2022-09-13T10:59:30.692Z,0.30
2022-09-13T11:04:39.294Z,0.50
2022-09-13T11:09:36.703Z,0.40
2022-09-13T11:14:42.792Z,0.35
2022-09-13T11:19:56.328Z,0.38
2022-09-13T11:25:01.469Z,0.30
2022-09-13T11:30:11.356Z,0.32
2022-09-13T11:35:20.708Z,0.30
2022-09-13T11:40:34.568Z,0.50
2022-09-13T11:45:28.477Z,0.30
2022-09-13T11:50:43.839Z,0.30
2022-09-13T11:55:41.936Z,0.20
2022-09-13T12:00:37.726Z,0.40
2022-09-13T12:05:31.323Z,0.20
2022-09-13T12:10:25.729Z,0.28
2022-09-13T12:15:24.044Z,0.28
2022-09-13T12:20:23.027Z,0.30
2022-09-13T12:25:24.279Z,0.20
2022-09-13T12:30:22.449Z,0.20
2022-09-13T12:35:22.399Z,0.20
2022-09-13T12:40:39.616Z,0.30
2022-09-13T12:45:46.058Z,0.30
2022-09-13T12:50:48.991Z,0.20
2022-09-13T12:56:04.875Z,0.38
2022-09-13T13:01:11.773Z,0.40
2022-09-13T13:06:12.739Z,0.22
2022-09-13T13:11:05.741Z,0.20
2022-09-13T13:16:09.276Z,0.30
2022-09-13T13:21:34.451Z,0.20
2022-09-13T13:26:49.703Z,0.40
2022-09-13T13:31:44.216Z,0.20
2022-09-13T13:36:45.424Z,0.20
2022-09-13T13:41:43.469Z,0.25
2022-09-13T13:46:35.109Z,0.30
2022-09-13T13:56:24.038Z,0.20
2022-09-13T14:01:19.664Z,0.13
2022-09-13T14:06:17.838Z,0.20
2022-09-13T14:11:25.241Z,0.20
2022-09-13T14:16:31.126Z,0.10
2022-09-13T14:21:28.206Z,0.10
2022-09-13T14:26:20.636Z,0.20
2022-09-13T14:31:10.697Z,0.20
2022-09-13T14:36:03.596Z,0.10
2022-09-13T14:40:55.853Z,0.10
2022-09-13T14:45:51.258Z,0.10
2022-09-13T14:50:44.962Z,0.13
2022-09-13T14:55:40.501Z,0.10
2022-09-13T15:00:32.632Z,0.20
2022-09-13T15:05:27.555Z,0.10
2022-09-13T22:44:10.623Z,0.40
2022-09-13T22:49:03.217Z,0.70
2022-09-13T22:53:55.116Z,0.40
2022-09-13T22:58:45.338Z,0.30
2022-09-13T23:03:36.509Z,0.85
2022-09-13T23:08:28.917Z,0.40
2022-09-13T23:13:18.460Z,0.65
2022-09-13T23:18:09.672Z,0.90
2022-09-13T23:22:59.319Z,0.77
2022-09-13T23:27:51.565Z,0.60
2022-09-13T23:32:41.283Z,0.75
2022-09-13T23:37:31.262Z,0.40
2022-09-13T23:42:21.424Z,0.40
2022-09-13T23:47:14.668Z,0.60
2022-09-13T23:52:04.465Z,0.63
2022-09-13T23:56:54.136Z,0.63
